Terminal Aerodrome Forecast
Issued by NWS

Home | Current Version | Previous Version | Text Only | Print | Product List | Glossary On
Versions: 1 2 3 4 5 6 7 8 9 10 11 12 13 14 15 16 17 18 19 20 21 22 23
000
FTUS41 KAKQ 251700
TAFPHF
TAF
KPHF 251739Z 2518/2618 01006KT P6SM SCT050
     FM252200 09003KT P6SM FEW050
     FM261000 20003KT 5SM BR FEW040
     FM261300 20008KT P6SM SCT050 SCT150=

USA.gov is the U.S. government's official web portal to all federal, state and local government web resources and services.